sensor_id;sensor_type;location;lat;lon;timestamp;temperature;humidity
47521;DHT22;32291;52.010;4.446;2024-02-14T00:00:59;9.20;99.90
47521;DHT22;32291;52.010;4.446;2024-02-14T00:02:01;9.10;99.90
47521;DHT22;32291;52.010;4.446;2024-02-14T00:03:08;9.20;99.90
47521;DHT22;32291;52.010;4.446;2024-02-14T00:04:15;9.20;99.90
47521;DHT22;32291;52.010;4.446;2024-02-14T00:05:17;9.10;99.90
47521;DHT22;32291;52.010;4.446;2024-02-14T00:06:24;9.10;99.90
47521;DHT22;32291;52.010;4.446;2024-02-14T00:07:31;9.10;99.90
47521;DHT22;32291;52.010;4.446;2024-02-14T00:08:38;9.10;99.90
47521;DHT22;32291;52.010;4.446;2024-02-14T00:09:40;9.20;99.90
47521;DHT22;32291;52.010;4.446;2024-02-14T00:10:47;9.10;99.90
47521;DHT22;32291;52.010;4.446;2024-02-14T00:11:54;9.10;99.90
47521;DHT22;32291;52.010;4.446;2024-02-14T00:13:01;9.20;99.90
47521;DHT22;32291;52.010;4.446;2024-02-14T00:14:04;9.20;99.90
47521;DHT22;32291;52.010;4.446;2024-02-14T00:15:07;9.20;99.90
47521;DHT22;32291;52.010;4.446;2024-02-14T00:16:14;9.20;99.90
47521;DHT22;32291;52.010;4.446;2024-02-14T00:17:21;9.20;99.90
47521;DHT22;32291;52.010;4.446;2024-02-14T00:18:23;9.20;99.90
47521;DHT22;32291;52.010;4.446;2024-02-14T00:19:30;9.20;99.90
47521;DHT22;32291;52.010;4.446;2024-02-14T00:20:38;9.20;99.90
47521;DHT22;32291;52.010;4.446;2024-02-14T00:21:47;9.20;99.90
47521;DHT22;32291;52.010;4.446;2024-02-14T00:22:54;9.20;99.90
47521;DHT22;32291;52.010;4.446;2024-02-14T00:23:57;9.20;99.90
47521;DHT22;32291;52.010;4.446;2024-02-14T00:25:04;9.20;99.90
47521;DHT22;32291;52.010;4.446;2024-02-14T00:26:11;9.20;99.90
47521;DHT22;32291;52.010;4.446;2024-02-14T00:27:14;9.20;99.90
47521;DHT22;32291;52.010;4.446;2024-02-14T00:28:20;9.30;99.90
47521;DHT22;32291;52.010;4.446;2024-02-14T00:29:30;9.30;99.90
47521;DHT22;32291;52.010;4.446;2024-02-14T00:30:37;9.30;99.90
47521;DHT22;32291;52.010;4.446;2024-02-14T00:31:44;9.20;99.90
47521;DHT22;32291;52.010;4.446;2024-02-14T00:32:51;9.30;99.90
47521;DHT22;32291;52.010;4.446;2024-02-14T00:33:53;9.30;99.90
47521;DHT22;32291;52.010;4.446;2024-02-14T00:35:00;9.30;99.90
47521;DHT22;32291;52.010;4.446;2024-02-14T00:36:02;9.30;99.90
47521;DHT22;32291;52.010;4.446;2024-02-14T00:37:09;9.20;99.90
47521;DHT22;32291;52.010;4.446;2024-02-14T00:38:16;9.30;99.90
47521;DHT22;32291;52.010;4.446;2024-02-14T00:39:22;9.30;99.90
47521;DHT22;32291;52.010;4.446;2024-02-14T00:40:29;9.30;99.90
47521;DHT22;32291;52.010;4.446;2024-02-14T00:41:36;9.30;99.90
47521;DHT22;32291;52.010;4.446;2024-02-14T00:42:43;9.30;99.90
47521;DHT22;32291;52.010;4.446;2024-02-14T00:43:50;9.30;99.90
47521;DHT22;32291;52.010;4.446;2024-02-14T00:44:57;9.30;99.90
47521;DHT22;32291;52.010;4.446;2024-02-14T00:46:04;9.30;99.90
47521;DHT22;32291;52.010;4.446;2024-02-14T00:47:06;9.40;99.90
47521;DHT22;32291;52.010;4.446;2024-02-14T00:48:13;9.40;99.90
47521;DHT22;32291;52.010;4.446;2024-02-14T00:49:20;9.40;99.90
47521;DHT22;32291;52.010;4.446;2024-02-14T00:50:27;9.40;99.90
47521;DHT22;32291;52.010;4.446;2024-02-14T00:51:34;9.40;99.90
47521;DHT22;32291;52.010;4.446;2024-02-14T00:52:36;9.40;99.90
47521;DHT22;32291;52.010;4.446;2024-02-14T00:53:43;9.40;99.90
47521;DHT22;32291;52.010;4.446;2024-02-14T00:54:50;9.30;99.90
47521;DHT22;32291;52.010;4.446;2024-02-14T00:55:58;9.40;99.90
47521;DHT22;32291;52.010;4.446;2024-02-14T00:57:06;9.40;99.90
47521;DHT22;32291;52.010;4.446;2024-02-14T00:58:14;9.40;99.90
47521;DHT22;32291;52.010;4.446;2024-02-14T00:59:16;9.40;99.90
47521;DHT22;32291;52.010;4.446;2024-02-14T01:00:23;9.40;99.90
47521;DHT22;32291;52.010;4.446;2024-02-14T01:01:30;9.40;99.90
47521;DHT22;32291;52.010;4.446;2024-02-14T01:02:37;9.40;99.90
47521;DHT22;32291;52.010;4.446;2024-02-14T01:03:44;9.50;99.90
47521;DHT22;32291;52.010;4.446;2024-02-14T01:04:51;9.40;99.90
47521;DHT22;32291;52.010;4.446;2024-02-14T01:05:58;9.50;99.90
47521;DHT22;32291;52.010;4.446;2024-02-14T01:07:00;9.50;99.90
47521;DHT22;32291;52.010;4.446;2024-02-14T01:08:07;9.50;99.90
47521;DHT22;32291;52.010;4.446;2024-02-14T01:09:14;9.50;99.90
47521;DHT22;32291;52.010;4.446;2024-02-14T01:10:21;9.50;99.90
47521;DHT22;32291;52.010;4.446;2024-02-14T01:11:28;9.50;99.90
47521;DHT22;32291;52.010;4.446;2024-02-14T01:12:35;9.60;99.90
47521;DHT22;32291;52.010;4.446;2024-02-14T01:13:41;9.50;99.90
47521;DHT22;32291;52.010;4.446;2024-02-14T01:14:49;9.60;99.90
47521;DHT22;32291;52.010;4.446;2024-02-14T01:15:55;9.60;99.90
47521;DHT22;32291;52.010;4.446;2024-02-14T01:16:58;9.60;99.90
47521;DHT22;32291;52.010;4.446;2024-02-14T01:18:04;9.60;99.90
47521;DHT22;32291;52.010;4.446;2024-02-14T01:19:12;9.60;99.90
47521;DHT22;32291;52.010;4.446;2024-02-14T01:20:20;9.60;99.90
47521;DHT22;32291;52.010;4.446;2024-02-14T01:21:27;9.60;99.90
47521;DHT22;32291;52.010;4.446;2024-02-14T01:22:35;9.60;99.90
47521;DHT22;32291;52.010;4.446;2024-02-14T01:23:43;9.60;99.90
47521;DHT22;32291;52.010;4.446;2024-02-14T01:24:50;9.60;99.90
47521;DHT22;32291;52.010;4.446;2024-02-14T01:25:52;9.60;99.90
47521;DHT22;32291;52.010;4.446;2024-02-14T01:26:56;9.70;99.90
47521;DHT22;32291;52.010;4.446;2024-02-14T01:27:58;9.70;99.90
47521;DHT22;32291;52.010;4.446;2024-02-14T01:29:06;9.70;99.90
47521;DHT22;32291;52.010;4.446;2024-02-14T01:30:13;9.70;99.90
47521;DHT22;32291;52.010;4.446;2024-02-14T01:31:16;9.70;99.90
47521;DHT22;32291;52.010;4.446;2024-02-14T01:32:18;9.60;99.90
47521;DHT22;32291;52.010;4.446;2024-02-14T01:33:19;9.60;99.90
47521;DHT22;32291;52.010;4.446;2024-02-14T01:34:21;9.70;99.90
47521;DHT22;32291;52.010;4.446;2024-02-14T01:35:24;9.60;99.90
47521;DHT22;32291;52.010;4.446;2024-02-14T01:36:32;9.70;99.90
47521;DHT22;32291;52.010;4.446;2024-02-14T01:37:39;9.70;99.90
47521;DHT22;32291;52.010;4.446;2024-02-14T01:38:41;9.70;99.90
47521;DHT22;32291;52.010;4.446;2024-02-14T01:39:49;9.70;99.90
47521;DHT22;32291;52.010;4.446;2024-02-14T01:40:54;9.70;99.90
47521;DHT22;32291;52.010;4.446;2024-02-14T01:42:01;9.70;99.90
47521;DHT22;32291;52.010;4.446;2024-02-14T01:43:03;9.70;99.90
47521;DHT22;32291;52.010;4.446;2024-02-14T01:44:05;9.70;99.90
47521;DHT22;32291;52.010;4.446;2024-02-14T01:45:09;9.70;99.90
47521;DHT22;32291;52.010;4.446;2024-02-14T01:46:12;9.80;99.90
47521;DHT22;32291;52.010;4.446;2024-02-14T01:47:18;9.80;99.90
47521;DHT22;32291;52.010;4.446;2024-02-14T01:48:25;9.70;99.90
47521;DHT22;32291;52.010;4.446;2024-02-14T01:49:33;9.70;99.90
47521;DHT22;32291;52.010;4.446;2024-02-14T01:50:41;9.70;99.90
47521;DHT22;32291;52.010;4.446;2024-02-14T01:51:48;9.70;99.90
47521;DHT22;32291;52.010;4.446;2024-02-14T01:53:00;9.70;99.90
47521;DHT22;32291;52.010;4.446;2024-02-14T01:54:03;9.70;99.90
47521;DHT22;32291;52.010;4.446;2024-02-14T01:55:12;9.80;99.90
47521;DHT22;32291;52.010;4.446;2024-02-14T01:56:20;9.70;99.90
47521;DHT22;32291;52.010;4.446;2024-02-14T01:57:27;9.70;99.90
47521;DHT22;32291;52.010;4.446;2024-02-14T01:58:30;9.80;99.90
47521;DHT22;32291;52.010;4.446;2024-02-14T01:59:34;9.80;99.90
47521;DHT22;32291;52.010;4.446;2024-02-14T02:00:41;9.80;99.90
47521;DHT22;32291;52.010;4.446;2024-02-14T02:01:44;9.80;99.90
47521;DHT22;32291;52.010;4.446;2024-02-14T02:02:51;9.70;99.90
47521;DHT22;32291;52.010;4.446;2024-02-14T02:03:58;9.70;99.90
47521;DHT22;32291;52.010;4.446;2024-02-14T02:05:00;9.70;99.90
47521;DHT22;32291;52.010;4.446;2024-02-14T02:06:07;9.70;99.90
47521;DHT22;32291;52.010;4.446;2024-02-14T02:07:15;9.80;99.90
47521;DHT22;32291;52.010;4.446;2024-02-14T02:08:24;9.80;99.90
47521;DHT22;32291;52.010;4.446;2024-02-14T02:09:30;9.80;99.90
47521;DHT22;32291;52.010;4.446;2024-02-14T02:10:39;9.70;99.90
47521;DHT22;32291;52.010;4.446;2024-02-14T02:11:49;9.80;99.90
47521;DHT22;32291;52.010;4.446;2024-02-14T02:12:58;9.80;99.90
47521;DHT22;32291;52.010;4.446;2024-02-14T02:14:06;9.80;99.90
47521;DHT22;32291;52.010;4.446;2024-02-14T02:15:13;9.80;99.90
47521;DHT22;32291;52.010;4.446;2024-02-14T02:16:21;9.80;99.90
47521;DHT22;32291;52.010;4.446;2024-02-14T02:17:28;9.80;99.90
47521;DHT22;32291;52.010;4.446;2024-02-14T02:18:35;9.80;99.90
47521;DHT22;32291;52.010;4.446;2024-02-14T02:19:42;9.80;99.90
47521;DHT22;32291;52.010;4.446;2024-02-14T02:20:44;9.90;99.90
47521;DHT22;32291;52.010;4.446;2024-02-14T02:21:50;9.80;99.90
47521;DHT22;32291;52.010;4.446;2024-02-14T02:22:58;9.90;99.90
47521;DHT22;32291;52.010;4.446;2024-02-14T02:24:01;9.90;99.90
47521;DHT22;32291;52.010;4.446;2024-02-14T02:25:09;9.90;99.90
47521;DHT22;32291;52.010;4.446;2024-02-14T02:26:11;9.90;99.90
47521;DHT22;32291;52.010;4.446;2024-02-14T02:27:13;9.90;99.90
47521;DHT22;32291;52.010;4.446;2024-02-14T02:28:17;9.90;99.90
47521;DHT22;32291;52.010;4.446;2024-02-14T02:29:25;9.90;99.90
47521;DHT22;32291;52.010;4.446;2024-02-14T02:30:27;9.90;99.90
47521;DHT22;32291;52.010;4.446;2024-02-14T02:31:35;10.00;99.90
47521;DHT22;32291;52.010;4.446;2024-02-14T02:32:44;10.00;99.90
47521;DHT22;32291;52.010;4.446;2024-02-14T02:33:51;10.00;99.90
47521;DHT22;32291;52.010;4.446;2024-02-14T02:34:53;10.10;99.90
47521;DHT22;32291;52.010;4.446;2024-02-14T02:36:00;10.00;99.90
47521;DHT22;32291;52.010;4.446;2024-02-14T02:37:07;10.00;99.90
47521;DHT22;32291;52.010;4.446;2024-02-14T02:38:16;10.10;99.90
47521;DHT22;32291;52.010;4.446;2024-02-14T02:39:19;10.10;99.90
47521;DHT22;32291;52.010;4.446;2024-02-14T02:40:26;10.20;99.90
47521;DHT22;32291;52.010;4.446;2024-02-14T02:41:33;10.20;99.90
47521;DHT22;32291;52.010;4.446;2024-02-14T02:42:40;10.20;99.90
47521;DHT22;32291;52.010;4.446;2024-02-14T02:43:42;10.20;99.90
47521;DHT22;32291;52.010;4.446;2024-02-14T02:44:51;10.20;99.90
47521;DHT22;32291;52.010;4.446;2024-02-14T02:45:54;10.20;99.90
47521;DHT22;32291;52.010;4.446;2024-02-14T02:46:56;10.20;99.90
47521;DHT22;32291;52.010;4.446;2024-02-14T02:48:03;10.20;99.90
47521;DHT22;32291;52.010;4.446;2024-02-14T02:49:06;10.20;99.90
47521;DHT22;32291;52.010;4.446;2024-02-14T02:50:14;10.20;99.90
47521;DHT22;32291;52.010;4.446;2024-02-14T02:51:16;10.20;99.90
47521;DHT22;32291;52.010;4.446;2024-02-14T02:52:21;10.20;99.90
47521;DHT22;32291;52.010;4.446;2024-02-14T02:53:28;10.20;99.90
47521;DHT22;32291;52.010;4.446;2024-02-14T02:54:35;10.30;99.90
47521;DHT22;32291;52.010;4.446;2024-02-14T02:55:46;10.20;99.90
47521;DHT22;32291;52.010;4.446;2024-02-14T02:56:53;10.20;99.90
47521;DHT22;32291;52.010;4.446;2024-02-14T02:57:59;10.30;99.90
47521;DHT22;32291;52.010;4.446;2024-02-14T02:59:03;10.30;99.90
47521;DHT22;32291;52.010;4.446;2024-02-14T03:00:06;10.30;99.90
47521;DHT22;32291;52.010;4.446;2024-02-14T03:01:14;10.30;99.90
47521;DHT22;32291;52.010;4.446;2024-02-14T03:02:20;10.30;99.90
47521;DHT22;32291;52.010;4.446;2024-02-14T03:03:27;10.30;99.90
47521;DHT22;32291;52.010;4.446;2024-02-14T03:04:30;10.30;99.90
47521;DHT22;32291;52.010;4.446;2024-02-14T03:05:38;10.30;99.90
47521;DHT22;32291;52.010;4.446;2024-02-14T03:06:45;10.30;99.90
47521;DHT22;32291;52.010;4.446;2024-02-14T03:07:52;10.40;99.90
47521;DHT22;32291;52.010;4.446;2024-02-14T03:08:59;10.40;99.90
47521;DHT22;32291;52.010;4.446;2024-02-14T03:10:06;10.40;99.90
47521;DHT22;32291;52.010;4.446;2024-02-14T03:11:16;10.40;99.90
47521;DHT22;32291;52.010;4.446;2024-02-14T03:12:23;10.40;99.90
47521;DHT22;32291;52.010;4.446;2024-02-14T03:13:27;10.40;99.90
47521;DHT22;32291;52.010;4.446;2024-02-14T03:14:34;10.40;99.90
47521;DHT22;32291;52.010;4.446;2024-02-14T03:15:40;10.40;99.90
47521;DHT22;32291;52.010;4.446;2024-02-14T03:16:42;10.40;99.90
47521;DHT22;32291;52.010;4.446;2024-02-14T03:17:49;10.50;99.90
47521;DHT22;32291;52.010;4.446;2024-02-14T03:18:56;10.40;99.90
47521;DHT22;32291;52.010;4.446;2024-02-14T03:19:58;10.40;99.90
47521;DHT22;32291;52.010;4.446;2024-02-14T03:21:05;10.50;99.90
47521;DHT22;32291;52.010;4.446;2024-02-14T03:22:10;10.40;99.90
47521;DHT22;32291;52.010;4.446;2024-02-14T03:23:17;10.50;99.90
47521;DHT22;32291;52.010;4.446;2024-02-14T03:24:24;10.50;99.90
47521;DHT22;32291;52.010;4.446;2024-02-14T03:25:34;10.50;99.90
47521;DHT22;32291;52.010;4.446;2024-02-14T03:26:43;10.50;99.90
47521;DHT22;32291;52.010;4.446;2024-02-14T03:27:50;10.50;99.90
47521;DHT22;32291;52.010;4.446;2024-02-14T03:29:03;10.50;99.90
47521;DHT22;32291;52.010;4.446;2024-02-14T03:30:13;10.60;99.90
47521;DHT22;32291;52.010;4.446;2024-02-14T03:31:22;10.50;99.90
47521;DHT22;32291;52.010;4.446;2024-02-14T03:32:30;10.50;99.90
47521;DHT22;32291;52.010;4.446;2024-02-14T03:33:36;10.60;99.90
47521;DHT22;32291;52.010;4.446;2024-02-14T03:34:44;10.60;99.90
47521;DHT22;32291;52.010;4.446;2024-02-14T03:35:50;10.60;99.90
47521;DHT22;32291;52.010;4.446;2024-02-14T03:36:57;10.50;99.90
47521;DHT22;32291;52.010;4.446;2024-02-14T03:38:03;10.60;99.90
47521;DHT22;32291;52.010;4.446;2024-02-14T03:39:10;10.60;99.90
47521;DHT22;32291;52.010;4.446;2024-02-14T03:40:12;10.60;99.90
47521;DHT22;32291;52.010;4.446;2024-02-14T03:41:19;10.60;99.90
47521;DHT22;32291;52.010;4.446;2024-02-14T03:42:26;10.60;99.90
47521;DHT22;32291;52.010;4.446;2024-02-14T03:43:33;10.60;99.90
47521;DHT22;32291;52.010;4.446;2024-02-14T03:44:40;10.60;99.90
47521;DHT22;32291;52.010;4.446;2024-02-14T03:45:47;10.60;99.90
47521;DHT22;32291;52.010;4.446;2024-02-14T03:46:54;10.60;99.90
47521;DHT22;32291;52.010;4.446;2024-02-14T03:47:56;10.60;99.90
47521;DHT22;32291;52.010;4.446;2024-02-14T03:49:03;10.60;99.90
47521;DHT22;32291;52.010;4.446;2024-02-14T03:50:07;10.60;99.90
47521;DHT22;32291;52.010;4.446;2024-02-14T03:51:15;10.60;99.90
47521;DHT22;32291;52.010;4.446;2024-02-14T03:52:22;10.60;99.90
47521;DHT22;32291;52.010;4.446;2024-02-14T03:53:29;10.70;99.90
47521;DHT22;32291;52.010;4.446;2024-02-14T03:54:36;10.70;99.90
47521;DHT22;32291;52.010;4.446;2024-02-14T03:55:44;10.70;99.90
47521;DHT22;32291;52.010;4.446;2024-02-14T03:56:50;10.70;99.90
47521;DHT22;32291;52.010;4.446;2024-02-14T03:57:58;10.70;99.90
47521;DHT22;32291;52.010;4.446;2024-02-14T03:59:05;10.70;99.90
47521;DHT22;32291;52.010;4.446;2024-02-14T04:00:14;10.70;99.90
47521;DHT22;32291;52.010;4.446;2024-02-14T04:01:21;10.70;99.90
47521;DHT22;32291;52.010;4.446;2024-02-14T04:02:28;10.70;99.90
47521;DHT22;32291;52.010;4.446;2024-02-14T04:03:36;10.80;99.90
47521;DHT22;32291;52.010;4.446;2024-02-14T04:04:43;10.80;99.90
47521;DHT22;32291;52.010;4.446;2024-02-14T04:05:50;10.80;99.90
47521;DHT22;32291;52.010;4.446;2024-02-14T04:06:57;10.80;99.90
47521;DHT22;32291;52.010;4.446;2024-02-14T04:08:05;10.80;99.90
47521;DHT22;32291;52.010;4.446;2024-02-14T04:09:16;10.80;99.90
47521;DHT22;32291;52.010;4.446;2024-02-14T04:10:23;10.80;99.90
47521;DHT22;32291;52.010;4.446;2024-02-14T04:11:30;10.80;99.90
47521;DHT22;32291;52.010;4.446;2024-02-14T04:12:37;10.80;99.90
47521;DHT22;32291;52.010;4.446;2024-02-14T04:13:44;10.80;99.90
47521;DHT22;32291;52.010;4.446;2024-02-14T04:14:50;10.80;99.90
47521;DHT22;32291;52.010;4.446;2024-02-14T04:15:57;10.80;99.90
47521;DHT22;32291;52.010;4.446;2024-02-14T04:17:05;10.80;99.90
47521;DHT22;32291;52.010;4.446;2024-02-14T04:18:17;10.90;99.90
47521;DHT22;32291;52.010;4.446;2024-02-14T04:19:28;10.90;99.90
47521;DHT22;32291;52.010;4.446;2024-02-14T04:20:35;10.90;99.90
47521;DHT22;32291;52.010;4.446;2024-02-14T04:21:37;10.90;99.90
47521;DHT22;32291;52.010;4.446;2024-02-14T04:22:39;10.90;99.90
47521;DHT22;32291;52.010;4.446;2024-02-14T04:23:41;10.90;99.90
47521;DHT22;32291;52.010;4.446;2024-02-14T04:24:48;10.90;99.90
47521;DHT22;32291;52.010;4.446;2024-02-14T04:25:50;10.90;99.90
47521;DHT22;32291;52.010;4.446;2024-02-14T04:26:53;10.90;99.90
47521;DHT22;32291;52.010;4.446;2024-02-14T04:27:58;10.90;99.90
47521;DHT22;32291;52.010;4.446;2024-02-14T04:29:08;10.90;99.90
47521;DHT22;32291;52.010;4.446;2024-02-14T04:30:11;10.90;99.90
47521;DHT22;32291;52.010;4.446;2024-02-14T04:31:18;10.90;99.90
47521;DHT22;32291;52.010;4.446;2024-02-14T04:32:25;11.00;99.90
47521;DHT22;32291;52.010;4.446;2024-02-14T04:33:33;10.90;99.90
47521;DHT22;32291;52.010;4.446;2024-02-14T04:34:39;10.90;99.90
47521;DHT22;32291;52.010;4.446;2024-02-14T04:35:43;10.90;99.90
47521;DHT22;32291;52.010;4.446;2024-02-14T04:36:50;10.90;99.90
47521;DHT22;32291;52.010;4.446;2024-02-14T04:37:53;11.00;99.90
47521;DHT22;32291;52.010;4.446;2024-02-14T04:39:00;11.00;99.90
47521;DHT22;32291;52.010;4.446;2024-02-14T04:40:07;11.00;99.90
47521;DHT22;32291;52.010;4.446;2024-02-14T04:41:15;11.00;99.90
47521;DHT22;32291;52.010;4.446;2024-02-14T04:42:18;11.00;99.90
47521;DHT22;32291;52.010;4.446;2024-02-14T04:43:20;11.00;99.90
47521;DHT22;32291;52.010;4.446;2024-02-14T04:44:22;11.00;99.90
47521;DHT22;32291;52.010;4.446;2024-02-14T04:45:24;10.90;99.90
47521;DHT22;32291;52.010;4.446;2024-02-14T04:46:25;10.90;99.90
47521;DHT22;32291;52.010;4.446;2024-02-14T04:47:27;11.00;99.90
47521;DHT22;32291;52.010;4.446;2024-02-14T04:48:31;11.00;99.90
47521;DHT22;32291;52.010;4.446;2024-02-14T04:49:38;10.90;99.90
47521;DHT22;32291;52.010;4.446;2024-02-14T04:50:40;11.00;99.90
47521;DHT22;32291;52.010;4.446;2024-02-14T04:51:46;11.00;99.90
47521;DHT22;32291;52.010;4.446;2024-02-14T04:52:53;11.00;99.90
47521;DHT22;32291;52.010;4.446;2024-02-14T04:54:00;11.00;99.90
47521;DHT22;32291;52.010;4.446;2024-02-14T04:55:02;11.00;99.90
47521;DHT22;32291;52.010;4.446;2024-02-14T04:56:05;11.00;99.90
47521;DHT22;32291;52.010;4.446;2024-02-14T04:57:14;11.00;99.90
47521;DHT22;32291;52.010;4.446;2024-02-14T04:58:21;11.00;99.90
47521;DHT22;32291;52.010;4.446;2024-02-14T04:59:28;11.00;99.90
47521;DHT22;32291;52.010;4.446;2024-02-14T05:00:30;11.00;99.90
47521;DHT22;32291;52.010;4.446;2024-02-14T05:01:37;11.00;99.90
47521;DHT22;32291;52.010;4.446;2024-02-14T05:02:46;11.00;99.90
47521;DHT22;32291;52.010;4.446;2024-02-14T05:03:48;11.00;99.90
47521;DHT22;32291;52.010;4.446;2024-02-14T05:04:56;11.00;99.90
47521;DHT22;32291;52.010;4.446;2024-02-14T05:06:03;11.00;99.90
47521;DHT22;32291;52.010;4.446;2024-02-14T05:07:12;10.90;99.90
47521;DHT22;32291;52.010;4.446;2024-02-14T05:08:19;11.00;99.90
47521;DHT22;32291;52.010;4.446;2024-02-14T05:09:25;11.00;99.90
47521;DHT22;32291;52.010;4.446;2024-02-14T05:10:28;11.00;99.90
47521;DHT22;32291;52.010;4.446;2024-02-14T05:11:34;11.00;99.90
47521;DHT22;32291;52.010;4.446;2024-02-14T05:12:41;11.10;99.90
47521;DHT22;32291;52.010;4.446;2024-02-14T05:13:49;11.00;99.90
47521;DHT22;32291;52.010;4.446;2024-02-14T05:14:51;11.00;99.90
47521;DHT22;32291;52.010;4.446;2024-02-14T05:15:53;11.00;99.90
47521;DHT22;32291;52.010;4.446;2024-02-14T05:17:00;11.10;99.90
47521;DHT22;32291;52.010;4.446;2024-02-14T05:18:07;11.10;99.90
47521;DHT22;32291;52.010;4.446;2024-02-14T05:19:14;11.10;99.90
47521;DHT22;32291;52.010;4.446;2024-02-14T05:20:21;11.10;99.90
47521;DHT22;32291;52.010;4.446;2024-02-14T05:21:28;11.10;99.90
47521;DHT22;32291;52.010;4.446;2024-02-14T05:22:38;11.10;99.90
47521;DHT22;32291;52.010;4.446;2024-02-14T05:23:45;11.10;99.90
47521;DHT22;32291;52.010;4.446;2024-02-14T05:24:52;11.10;99.90
47521;DHT22;32291;52.010;4.446;2024-02-14T05:25:58;11.10;99.90
47521;DHT22;32291;52.010;4.446;2024-02-14T05:27:05;11.20;99.90
47521;DHT22;32291;52.010;4.446;2024-02-14T05:28:12;11.10;99.90
47521;DHT22;32291;52.010;4.446;2024-02-14T05:29:21;11.10;99.90
47521;DHT22;32291;52.010;4.446;2024-02-14T05:30:23;11.10;99.90
47521;DHT22;32291;52.010;4.446;2024-02-14T05:31:43;11.20;99.90
47521;DHT22;32291;52.010;4.446;2024-02-14T05:32:51;11.20;99.90
47521;DHT22;32291;52.010;4.446;2024-02-14T05:33:54;11.20;99.90
47521;DHT22;32291;52.010;4.446;2024-02-14T05:35:01;11.10;99.90
47521;DHT22;32291;52.010;4.446;2024-02-14T05:36:06;11.10;99.90
47521;DHT22;32291;52.010;4.446;2024-02-14T05:37:16;11.10;99.90
47521;DHT22;32291;52.010;4.446;2024-02-14T05:38:23;11.10;99.90
47521;DHT22;32291;52.010;4.446;2024-02-14T05:39:30;11.10;99.90
47521;DHT22;32291;52.010;4.446;2024-02-14T05:40:32;11.10;99.90
47521;DHT22;32291;52.010;4.446;2024-02-14T05:41:39;11.10;99.90
47521;DHT22;32291;52.010;4.446;2024-02-14T05:42:47;11.10;99.90
47521;DHT22;32291;52.010;4.446;2024-02-14T05:43:54;11.10;99.90
47521;DHT22;32291;52.010;4.446;2024-02-14T05:45:01;11.00;99.90
47521;DHT22;32291;52.010;4.446;2024-02-14T05:46:05;11.10;99.90
47521;DHT22;32291;52.010;4.446;2024-02-14T05:47:12;11.00;99.90
47521;DHT22;32291;52.010;4.446;2024-02-14T05:48:19;11.00;99.90
47521;DHT22;32291;52.010;4.446;2024-02-14T05:49:26;11.00;99.90
47521;DHT22;32291;52.010;4.446;2024-02-14T05:50:33;11.00;99.90
47521;DHT22;32291;52.010;4.446;2024-02-14T05:51:36;11.00;99.90
47521;DHT22;32291;52.010;4.446;2024-02-14T05:52:38;11.00;99.90
47521;DHT22;32291;52.010;4.446;2024-02-14T05:53:45;11.00;99.90
47521;DHT22;32291;52.010;4.446;2024-02-14T05:54:52;11.00;99.90
47521;DHT22;32291;52.010;4.446;2024-02-14T05:55:54;11.00;99.90
47521;DHT22;32291;52.010;4.446;2024-02-14T05:57:01;11.00;99.90
47521;DHT22;32291;52.010;4.446;2024-02-14T05:58:11;11.00;99.90
47521;DHT22;32291;52.010;4.446;2024-02-14T05:59:19;11.00;99.90
47521;DHT22;32291;52.010;4.446;2024-02-14T06:00:25;11.00;99.90
47521;DHT22;32291;52.010;4.446;2024-02-14T06:01:33;11.00;99.90
47521;DHT22;32291;52.010;4.446;2024-02-14T06:02:35;11.10;99.90
47521;DHT22;32291;52.010;4.446;2024-02-14T06:03:37;11.00;99.90
47521;DHT22;32291;52.010;4.446;2024-02-14T06:04:44;11.00;99.90
47521;DHT22;32291;52.010;4.446;2024-02-14T06:05:51;11.00;99.90
47521;DHT22;32291;52.010;4.446;2024-02-14T06:06:53;11.00;99.90
47521;DHT22;32291;52.010;4.446;2024-02-14T06:08:00;11.00;99.90
47521;DHT22;32291;52.010;4.446;2024-02-14T06:09:09;11.00;99.90
47521;DHT22;32291;52.010;4.446;2024-02-14T06:10:17;11.00;99.90
47521;DHT22;32291;52.010;4.446;2024-02-14T06:11:24;11.00;99.90
47521;DHT22;32291;52.010;4.446;2024-02-14T06:12:26;11.10;99.90
47521;DHT22;32291;52.010;4.446;2024-02-14T06:13:34;11.10;99.90
47521;DHT22;32291;52.010;4.446;2024-02-14T06:14:37;11.10;99.90
47521;DHT22;32291;52.010;4.446;2024-02-14T06:15:44;11.10;99.90
47521;DHT22;32291;52.010;4.446;2024-02-14T06:16:52;11.10;99.90
47521;DHT22;32291;52.010;4.446;2024-02-14T06:17:58;11.10;99.90
47521;DHT22;32291;52.010;4.446;2024-02-14T06:19:01;11.10;99.90
47521;DHT22;32291;52.010;4.446;2024-02-14T06:20:11;11.10;99.90
47521;DHT22;32291;52.010;4.446;2024-02-14T06:21:19;11.10;99.90
47521;DHT22;32291;52.010;4.446;2024-02-14T06:22:25;11.10;99.90
47521;DHT22;32291;52.010;4.446;2024-02-14T06:23:32;11.10;99.90
47521;DHT22;32291;52.010;4.446;2024-02-14T06:24:40;11.10;99.90
47521;DHT22;32291;52.010;4.446;2024-02-14T06:25:47;11.10;99.90
47521;DHT22;32291;52.010;4.446;2024-02-14T06:26:53;11.10;99.90
47521;DHT22;32291;52.010;4.446;2024-02-14T06:28:00;11.10;99.90
47521;DHT22;32291;52.010;4.446;2024-02-14T06:29:08;11.10;99.90
47521;DHT22;32291;52.010;4.446;2024-02-14T06:30:15;11.10;99.90
47521;DHT22;32291;52.010;4.446;2024-02-14T06:31:23;11.10;99.90
47521;DHT22;32291;52.010;4.446;2024-02-14T06:32:25;11.10;99.90
47521;DHT22;32291;52.010;4.446;2024-02-14T06:33:32;11.10;99.90
47521;DHT22;32291;52.010;4.446;2024-02-14T06:34:35;11.10;99.90
47521;DHT22;32291;52.010;4.446;2024-02-14T06:35:42;11.10;99.90
47521;DHT22;32291;52.010;4.446;2024-02-14T06:36:50;11.10;99.90
47521;DHT22;32291;52.010;4.446;2024-02-14T06:37:57;11.10;99.90
47521;DHT22;32291;52.010;4.446;2024-02-14T06:39:06;11.10;99.90
47521;DHT22;32291;52.010;4.446;2024-02-14T06:40:08;11.10;99.90
47521;DHT22;32291;52.010;4.446;2024-02-14T06:41:12;11.10;99.90
47521;DHT22;32291;52.010;4.446;2024-02-14T06:42:20;11.10;99.90
47521;DHT22;32291;52.010;4.446;2024-02-14T06:43:26;11.10;99.90
47521;DHT22;32291;52.010;4.446;2024-02-14T06:44:35;11.10;99.90
47521;DHT22;32291;52.010;4.446;2024-02-14T06:45:42;11.10;99.90
47521;DHT22;32291;52.010;4.446;2024-02-14T06:46:50;11.10;99.90
47521;DHT22;32291;52.010;4.446;2024-02-14T06:47:56;11.10;99.90
47521;DHT22;32291;52.010;4.446;2024-02-14T06:48:58;11.10;99.90
47521;DHT22;32291;52.010;4.446;2024-02-14T06:50:06;11.10;99.90
47521;DHT22;32291;52.010;4.446;2024-02-14T06:51:13;11.10;99.90
47521;DHT22;32291;52.010;4.446;2024-02-14T06:52:20;11.10;99.90
47521;DHT22;32291;52.010;4.446;2024-02-14T06:53:27;11.10;99.90
47521;DHT22;32291;52.010;4.446;2024-02-14T06:54:29;11.10;99.90
47521;DHT22;32291;52.010;4.446;2024-02-14T06:55:36;11.10;99.90
47521;DHT22;32291;52.010;4.446;2024-02-14T06:56:43;11.10;99.90
47521;DHT22;32291;52.010;4.446;2024-02-14T06:57:50;11.10;99.90
47521;DHT22;32291;52.010;4.446;2024-02-14T06:58:53;11.10;99.90
47521;DHT22;32291;52.010;4.446;2024-02-14T07:00:06;11.10;99.90
47521;DHT22;32291;52.010;4.446;2024-02-14T07:01:15;11.10;99.90